Time;durP1;ratioP1;P1;durP2;ratioP2;P2;SDS_P1;SDS_P2;PMS_P1;PMS_P2;Temp;Humidity;BMP_temperature;BMP_pressure;BME280_temperature;BME280_humidity;BME280_pressure;Samples;Min_cycle;Max_cycle;Signal;HPM_P1;HPM_P2
2023/10/26 00:00:27;;;;;;;37.65;15.57;;;16.10;99.90;;;;;;5087501;28;20040;-76
2023/10/26 00:02:55;;;;;;;89.75;47.13;;;16.10;99.90;;;;;;5084214;28;20040;-76
2023/10/26 00:05:23;;;;;;;61.83;33.85;;;16.10;99.90;;;;;;5089696;28;20044;-78
2023/10/26 00:07:50;;;;;;;33.55;18.80;;;16.00;99.90;;;;;;5089828;28;20047;-79
2023/10/26 00:10:18;;;;;;;37.67;14.25;;;16.00;99.90;;;;;;5085044;28;20048;-79
2023/10/26 00:12:45;;;;;;;30.48;12.63;;;15.80;99.90;;;;;;5087962;28;20040;-79
2023/10/26 00:15:13;;;;;;;21.13;12.32;;;15.80;99.90;;;;;;5088646;28;20035;-80
2023/10/26 00:17:40;;;;;;;24.17;11.75;;;15.90;99.90;;;;;;5068677;28;20514;-77
2023/10/26 00:20:08;;;;;;;28.75;12.05;;;15.90;99.90;;;;;;5067667;28;20045;-75
2023/10/26 00:22:36;;;;;;;22.13;11.93;;;15.80;99.90;;;;;;5090412;28;20036;-79
2023/10/26 00:25:03;;;;;;;28.75;12.00;;;15.80;99.90;;;;;;5084179;28;20044;-83
2023/10/26 00:27:30;;;;;;;27.92;12.18;;;15.80;99.90;;;;;;5090669;28;20438;-82
2023/10/26 00:30:00;;;;;;;28.42;12.23;;;15.80;99.90;;;;;;5087653;28;20506;-83
2023/10/26 00:32:28;;;;;;;32.13;14.50;;;15.90;99.90;;;;;;5086831;28;20039;-78
2023/10/26 00:34:55;;;;;;;29.17;13.40;;;15.90;99.90;;;;;;5085882;28;20043;-79
2023/10/26 00:37:22;;;;;;;24.48;11.73;;;15.80;99.90;;;;;;5085154;28;20043;-78
2023/10/26 00:39:49;;;;;;;22.83;12.07;;;15.80;99.90;;;;;;5087219;28;20043;-79
2023/10/26 00:42:17;;;;;;;27.73;11.50;;;15.80;99.90;;;;;;5086498;28;20055;-78
2023/10/26 00:44:46;;;;;;;25.27;12.60;;;15.90;99.90;;;;;;5088496;28;20469;-78
2023/10/26 00:47:14;;;;;;;28.85;12.95;;;15.90;99.90;;;;;;5084159;28;20086;-78
2023/10/26 00:49:42;;;;;;;26.98;12.60;;;15.80;99.90;;;;;;5087669;28;20040;-80
2023/10/26 00:52:11;;;;;;;29.95;12.43;;;15.90;99.90;;;;;;5086515;28;20040;-76
2023/10/26 00:54:42;;;;;;;29.30;11.35;;;15.80;99.90;;;;;;5085268;28;20043;-81
2023/10/26 00:57:10;;;;;;;;;;;15.80;99.90;;;;;;5087111;28;20036;-78
2023/10/26 00:59:39;;;;;;;24.38;10.88;;;15.80;99.90;;;;;;5091851;28;20351;-80
2023/10/26 01:02:06;;;;;;;28.83;11.70;;;15.80;99.90;;;;;;5089190;28;20081;-80
2023/10/26 01:04:33;;;;;;;30.88;12.52;;;15.90;99.90;;;;;;5087428;28;20036;-79
2023/10/26 01:07:00;;;;;;;27.58;12.07;;;15.70;99.90;;;;;;5065038;28;20040;-78
2023/10/26 01:09:28;;;;;;;27.50;11.75;;;15.60;99.90;;;;;;5086516;28;20044;-78
2023/10/26 01:11:55;;;;;;;27.50;12.10;;;15.70;99.90;;;;;;5079666;28;20036;-80
2023/10/26 01:14:23;;;;;;;25.92;12.60;;;15.70;99.90;;;;;;5084152;28;20059;-79
2023/10/26 01:16:51;;;;;;;23.35;11.77;;;15.70;99.90;;;;;;5086176;28;20394;-78
2023/10/26 01:19:18;;;;;;;27.02;10.98;;;15.80;99.90;;;;;;5068641;28;20392;-77
2023/10/26 01:21:50;;;;;;;20.92;10.80;;;15.70;99.90;;;;;;5086522;28;20450;-75
2023/10/26 01:24:18;;;;;;;21.92;11.38;;;15.70;99.90;;;;;;5085584;28;20036;-76
2023/10/26 01:27:04;;;;;;;24.30;11.50;;;15.80;99.90;;;;;;5084775;28;20020;-78
2023/10/26 01:29:32;;;;;;;32.53;12.90;;;15.70;99.90;;;;;;5087587;28;20056;-78
2023/10/26 01:32:00;;;;;;;29.38;13.15;;;15.70;99.90;;;;;;5076279;28;20042;-79
2023/10/26 01:34:28;;;;;;;36.00;12.20;;;15.50;99.90;;;;;;5086242;28;20044;-77
2023/10/26 01:36:55;;;;;;;27.67;12.07;;;15.30;99.90;;;;;;5089511;28;20135;-75
2023/10/26 01:39:23;;;;;;;27.73;13.38;;;15.30;99.90;;;;;;5078272;28;20054;-78
2023/10/26 01:41:50;;;;;;;32.40;12.50;;;15.40;99.90;;;;;;5086250;28;20390;-75
2023/10/26 01:44:17;;;;;;;31.40;12.48;;;15.50;99.90;;;;;;5086739;28;20181;-75
2023/10/26 01:46:44;;;;;;;28.63;12.65;;;15.60;99.90;;;;;;5085422;28;20473;-75
2023/10/26 01:49:11;;;;;;;30.52;12.02;;;15.60;99.90;;;;;;5083940;28;20036;-74
2023/10/26 01:51:39;;;;;;;28.67;12.30;;;15.70;99.90;;;;;;5088800;28;20044;-74
2023/10/26 01:54:06;;;;;;;40.88;14.23;;;15.70;99.90;;;;;;5086991;28;20090;-77
2023/10/26 01:56:36;;;;;;;34.03;16.10;;;15.60;99.90;;;;;;5077425;28;20048;-74
2023/10/26 01:59:03;;;;;;;32.20;12.73;;;15.50;99.90;;;;;;5087344;28;20539;-76
2023/10/26 02:01:49;;;;;;;30.65;12.38;;;15.60;99.90;;;;;;5088459;28;20078;-74
2023/10/26 02:04:16;;;;;;;38.22;13.63;;;15.70;99.90;;;;;;5084643;28;20068;-75
2023/10/26 02:06:43;;;;;;;33.42;14.07;;;15.80;99.90;;;;;;5085669;28;20122;-77
2023/10/26 02:09:13;;;;;;;32.35;14.02;;;15.80;99.90;;;;;;5089068;28;20036;-76
2023/10/26 02:11:40;;;;;;;32.88;14.48;;;15.60;99.90;;;;;;5084543;28;20033;-74
2023/10/26 02:14:07;;;;;;;33.67;14.60;;;15.50;99.90;;;;;;5086203;28;20047;-75
2023/10/26 02:16:35;;;;;;;29.30;13.48;;;15.60;99.90;;;;;;5078858;28;20040;-73
2023/10/26 02:19:02;;;;;;;35.30;13.40;;;15.60;99.90;;;;;;5089044;28;20059;-75
2023/10/26 02:21:29;;;;;;;29.40;13.40;;;15.60;99.90;;;;;;5087219;28;20489;-74
2023/10/26 02:23:56;;;;;;;28.55;13.27;;;15.60;99.90;;;;;;5086957;28;20036;-74
2023/10/26 02:26:24;;;;;;;35.13;14.38;;;15.70;99.90;;;;;;5084846;28;20058;-73
2023/10/26 02:28:51;;;;;;;36.83;12.82;;;15.60;99.90;;;;;;5091554;28;20036;-76
2023/10/26 02:31:18;;;;;;;36.10;14.85;;;15.60;99.90;;;;;;5073262;28;20510;-75
2023/10/26 02:33:45;;;;;;;32.70;14.25;;;15.70;99.90;;;;;;5087687;28;20066;-74
2023/10/26 02:36:13;;;;;;;33.50;13.77;;;15.80;99.90;;;;;;5087611;28;20044;-76
2023/10/26 02:38:40;;;;;;;37.50;14.70;;;15.80;99.90;;;;;;5085793;28;20581;-74
2023/10/26 02:41:07;;;;;;;33.30;14.90;;;15.80;99.90;;;;;;5086699;28;20032;-75
2023/10/26 02:43:35;;;;;;;27.27;12.98;;;15.90;99.90;;;;;;5087833;28;20052;-76
2023/10/26 02:46:06;;;;;;;31.67;13.98;;;15.90;99.90;;;;;;5091561;28;20040;-76
2023/10/26 02:48:36;;;;;;;28.98;13.52;;;15.80;99.90;;;;;;5085085;28;20051;-75
2023/10/26 02:51:03;;;;;;;32.80;14.43;;;15.80;99.90;;;;;;5089827;28;20150;-77
2023/10/26 02:53:31;;;;;;;31.65;13.90;;;15.90;99.90;;;;;;5088286;28;20044;-78
2023/10/26 02:55:58;;;;;;;34.20;12.95;;;16.00;99.90;;;;;;5087190;28;20046;-75
2023/10/26 02:58:25;;;;;;;28.88;13.10;;;16.00;99.90;;;;;;5084099;28;20498;-77
2023/10/26 03:00:54;;;;;;;26.85;13.57;;;16.00;99.90;;;;;;5088406;28;20116;-76
2023/10/26 03:03:22;;;;;;;26.08;13.77;;;16.00;99.90;;;;;;5089011;28;20992;-76
2023/10/26 03:05:49;;;;;;;32.70;13.65;;;16.00;99.90;;;;;;5091829;28;20148;-76
2023/10/26 03:08:17;;;;;;;39.90;13.00;;;16.00;99.90;;;;;;5087277;28;20115;-75
2023/10/26 03:10:45;;;;;;;33.22;13.45;;;16.10;99.90;;;;;;5091517;28;20081;-77
2023/10/26 03:13:12;;;;;;;32.00;13.20;;;16.10;99.90;;;;;;5084462;28;20044;-77
2023/10/26 03:15:39;;;;;;;31.08;12.70;;;16.10;99.90;;;;;;5090084;28;20479;-77
2023/10/26 03:18:23;;;;;;;32.28;13.15;;;16.10;99.90;;;;;;5091060;28;20479;-79
2023/10/26 03:20:51;;;;;;;24.60;13.20;;;16.10;99.90;;;;;;5086363;28;20123;-76
2023/10/26 03:23:18;;;;;;;26.13;12.27;;;16.10;99.90;;;;;;5088603;28;20050;-75
2023/10/26 03:25:45;;;;;;;31.00;13.18;;;16.10;99.90;;;;;;5070149;28;20503;-79
2023/10/26 03:28:12;;;;;;;33.88;13.77;;;16.10;99.90;;;;;;5086444;28;20032;-78
2023/10/26 03:30:40;;;;;;;31.70;12.90;;;16.10;99.90;;;;;;5089458;28;21083;-75
2023/10/26 03:33:07;;;;;;;31.02;14.00;;;16.10;99.90;;;;;;5090846;28;20043;-79
2023/10/26 03:35:35;;;;;;;35.40;14.35;;;15.80;99.90;;;;;;5083680;28;20407;-75
2023/10/26 03:38:02;;;;;;;34.13;14.10;;;15.40;99.90;;;;;;5088535;28;20478;-75
2023/10/26 03:40:29;;;;;;;32.20;14.00;;;15.30;99.90;;;;;;5090909;28;20040;-76
2023/10/26 03:42:57;;;;;;;30.38;13.50;;;15.20;99.90;;;;;;5083674;28;20107;-76
2023/10/26 03:45:26;;;;;;;32.10;13.98;;;15.10;99.90;;;;;;5086083;28;20055;-76
2023/10/26 03:47:54;;;;;;;34.40;15.38;;;15.20;99.90;;;;;;5090012;28;20036;-75
2023/10/26 03:50:22;;;;;;;32.22;15.80;;;15.40;99.90;;;;;;5071697;28;20507;-76
2023/10/26 03:52:49;;;;;;;29.75;13.75;;;15.50;99.90;;;;;;5086331;28;20063;-76
2023/10/26 03:55:16;;;;;;;32.63;13.80;;;15.40;99.90;;;;;;5087102;28;20032;-77
2023/10/26 03:57:44;;;;;;;30.73;14.25;;;15.50;99.90;;;;;;5088263;28;20593;-74
2023/10/26 04:00:12;;;;;;;40.80;14.73;;;15.50;99.90;;;;;;5088413;28;20062;-77
2023/10/26 04:02:39;;;;;;;36.13;14.00;;;15.30;99.90;;;;;;5085681;28;20045;-76
2023/10/26 04:05:25;;;;;;;34.45;14.13;;;15.30;99.90;;;;;;5087371;28;20043;-74
2023/10/26 04:08:12;;;;;;;34.05;14.13;;;15.20;99.90;;;;;;5084137;28;20414;-75
2023/10/26 04:10:42;;;;;;;36.72;15.00;;;15.20;99.90;;;;;;5090634;28;20048;-75
2023/10/26 04:13:09;;;;;;;39.60;14.98;;;15.30;99.90;;;;;;5083250;28;20041;-77
2023/10/26 04:15:36;;;;;;;39.67;13.18;;;15.40;99.90;;;;;;5088720;28;20090;-75
2023/10/26 04:18:05;;;;;;;34.65;14.40;;;15.40;99.90;;;;;;5070548;28;20217;-77
2023/10/26 04:20:33;;;;;;;32.00;13.73;;;15.40;99.90;;;;;;5086612;28;20040;-76
2023/10/26 04:23:00;;;;;;;24.40;13.32;;;15.40;99.90;;;;;;5085319;28;20542;-76
2023/10/26 04:25:28;;;;;;;32.97;13.02;;;15.40;99.90;;;;;;5085545;28;20040;-75
2023/10/26 04:28:16;;;;;;;25.15;11.98;;;15.40;99.90;;;;;;5085123;28;20119;-75
2023/10/26 04:30:48;;;;;;;27.63;12.18;;;15.40;99.90;;;;;;5084634;28;20055;-77
2023/10/26 04:33:16;;;;;;;27.08;12.48;;;15.20;99.90;;;;;;5069635;28;20107;-75
2023/10/26 04:35:45;;;;;;;28.73;13.48;;;15.20;99.90;;;;;;5062849;28;20044;-78
2023/10/26 04:38:12;;;;;;;29.38;13.18;;;15.20;99.90;;;;;;5087188;28;20040;-78
2023/10/26 04:40:41;;;;;;;39.28;14.20;;;15.40;99.90;;;;;;5085444;28;20042;-77
2023/10/26 04:43:08;;;;;;;31.17;14.02;;;15.40;99.90;;;;;;5083950;28;20117;-78
2023/10/26 04:45:36;;;;;;;31.65;13.82;;;15.30;99.90;;;;;;5075717;28;20036;-76
2023/10/26 04:48:03;;;;;;;33.92;13.50;;;15.20;99.90;;;;;;5083465;28;20044;-78
2023/10/26 04:50:31;;;;;;;32.53;11.32;;;15.30;99.90;;;;;;5083151;28;20093;-74
2023/10/26 04:52:59;;;;;;;26.95;11.35;;;15.30;99.90;;;;;;5088431;28;20058;-79
2023/10/26 04:55:30;;;;;;;36.47;17.10;;;15.20;99.90;;;;;;5060556;28;20125;-76
2023/10/26 04:57:58;;;;;;;26.95;13.90;;;15.20;99.90;;;;;;5078519;28;20028;-76
2023/10/26 05:00:26;;;;;;;37.60;14.38;;;15.20;99.90;;;;;;5083820;28;20697;-76
2023/10/26 05:02:53;;;;;;;34.75;14.82;;;15.20;99.90;;;;;;5084047;28;20047;-77
2023/10/26 05:05:21;;;;;;;25.10;13.75;;;15.20;99.90;;;;;;5085187;28;20063;-77
2023/10/26 05:07:48;;;;;;;63.55;34.85;;;15.10;99.90;;;;;;5083994;28;20044;-78
2023/10/26 05:10:16;;;;;;;146.88;82.10;;;15.20;99.90;;;;;;5085726;28;20054;-76
2023/10/26 05:12:43;;;;;;;129.43;82.20;;;15.30;99.90;;;;;;5083703;28;20040;-75
2023/10/26 05:15:10;;;;;;;159.40;92.78;;;15.30;99.90;;;;;;5083201;28;20044;-75
2023/10/26 05:17:38;;;;;;;54.97;35.42;;;15.30;99.90;;;;;;5084039;28;20036;-76
2023/10/26 05:20:07;;;;;;;29.77;17.27;;;15.30;99.90;;;;;;5083013;28;20495;-76
2023/10/26 05:22:34;;;;;;;26.75;14.55;;;15.10;99.90;;;;;;5079114;28;20040;-75
2023/10/26 05:25:18;;;;;;;26.38;14.30;;;15.20;99.90;;;;;;5087004;28;20294;-74
2023/10/26 05:27:46;;;;;;;22.73;13.68;;;15.20;99.90;;;;;;5078695;28;20036;-76
2023/10/26 05:30:13;;;;;;;25.85;12.48;;;15.20;99.90;;;;;;5076331;28;20044;-77
2023/10/26 05:32:40;;;;;;;23.30;13.07;;;15.20;99.90;;;;;;5073278;28;20052;-74
2023/10/26 05:35:26;;;;;;;18.67;12.18;;;15.10;99.90;;;;;;5077368;28;20051;-74
2023/10/26 05:37:53;;;;;;;27.23;12.90;;;15.20;99.90;;;;;;5057045;28;20876;-75
2023/10/26 05:40:20;;;;;;;20.13;12.07;;;15.10;99.90;;;;;;5077982;28;20044;-74
2023/10/26 05:42:47;;;;;;;24.98;13.02;;;15.10;99.90;;;;;;5058607;28;20483;-76
2023/10/26 05:45:15;;;;;;;20.98;11.55;;;15.00;99.90;;;;;;5080506;28;20041;-77
2023/10/26 05:47:42;;;;;;;24.63;12.07;;;15.00;99.90;;;;;;5085379;28;20051;-73
2023/10/26 05:50:10;;;;;;;43.90;24.48;;;15.00;99.90;;;;;;5082656;28;20526;-78
2023/10/26 05:52:37;;;;;;;57.92;30.17;;;15.00;99.90;;;;;;5087616;28;20044;-76
2023/10/26 05:55:23;;;;;;;195.48;109.43;;;15.20;99.90;;;;;;5082243;28;20016;-74
2023/10/26 05:58:09;;;;;;;41.63;25.95;;;15.30;99.90;;;;;;5083473;28;20020;-78
2023/10/26 06:00:37;;;;;;;22.98;14.85;;;15.20;99.90;;;;;;5087349;28;20037;-77
2023/10/26 06:03:07;;;;;;;21.58;13.40;;;15.10;99.90;;;;;;5089208;28;20040;-79
2023/10/26 06:05:34;;;;;;;32.63;15.15;;;15.10;99.90;;;;;;5085534;28;20107;-78
2023/10/26 06:08:01;;;;;;;26.90;12.45;;;14.90;99.90;;;;;;5086566;28;20036;-74
2023/10/26 06:10:28;;;;;;;32.58;14.27;;;14.90;99.90;;;;;;5089096;28;20055;-78
2023/10/26 06:12:56;;;;;;;48.50;12.90;;;14.90;99.90;;;;;;5088676;28;20031;-75
2023/10/26 06:15:23;;;;;;;26.88;11.93;;;14.70;99.90;;;;;;5088190;28;20880;-74
2023/10/26 06:17:50;;;;;;;32.13;13.60;;;14.80;99.90;;;;;;5088703;28;20037;-77
2023/10/26 06:20:18;;;;;;;21.15;12.00;;;14.80;99.90;;;;;;5090391;28;20063;-77
2023/10/26 06:22:45;;;;;;;40.50;13.05;;;14.80;99.90;;;;;;5084684;28;20047;-77
2023/10/26 06:25:12;;;;;;;22.38;12.35;;;14.70;99.90;;;;;;5089505;28;20527;-77
2023/10/26 06:27:39;;;;;;;27.10;13.88;;;14.70;99.90;;;;;;5086734;28;20137;-76
2023/10/26 06:30:07;;;;;;;23.55;13.32;;;14.90;99.90;;;;;;5087272;28;20046;-77
2023/10/26 06:32:35;;;;;;;30.08;13.70;;;15.00;99.90;;;;;;5068405;28;20041;-77
2023/10/26 06:35:03;;;;;;;25.55;13.23;;;15.00;99.90;;;;;;5069342;28;20349;-77
2023/10/26 06:37:32;;;;;;;33.58;12.70;;;15.10;99.90;;;;;;5087660;28;20040;-77
2023/10/26 06:39:59;;;;;;;28.77;11.90;;;15.20;99.90;;;;;;5088238;28;20040;-77
2023/10/26 06:42:27;;;;;;;23.27;12.18;;;15.40;99.90;;;;;;5087585;28;20097;-76
2023/10/26 06:44:54;;;;;;;36.13;13.77;;;15.60;99.90;;;;;;5089785;28;20147;-76
2023/10/26 06:47:21;;;;;;;26.08;14.18;;;15.60;99.90;;;;;;5095108;28;20051;-77
2023/10/26 06:49:49;;;;;;;30.83;15.25;;;15.60;99.90;;;;;;5086355;28;20095;-77
2023/10/26 06:52:16;;;;;;;29.30;14.80;;;15.70;99.90;;;;;;5087492;28;20040;-76
2023/10/26 06:54:49;;;;;;;24.08;13.30;;;15.80;99.90;;;;;;5087825;28;20047;-76
2023/10/26 06:57:18;;;;;;;28.58;14.18;;;15.90;99.90;;;;;;5083343;28;20033;-75
2023/10/26 06:59:45;;;;;;;28.30;14.45;;;15.80;99.90;;;;;;5088775;28;20039;-76
2023/10/26 07:02:13;;;;;;;26.65;13.93;;;15.80;99.90;;;;;;5084657;28;20051;-75
2023/10/26 07:04:40;;;;;;;23.35;12.70;;;15.70;99.90;;;;;;5070262;28;20514;-77
2023/10/26 07:07:08;;;;;;;31.85;13.93;;;15.90;99.90;;;;;;5067657;28;20119;-77
2023/10/26 07:09:52;;;;;;;31.33;14.52;;;16.00;99.90;;;;;;5089009;28;20020;-76
2023/10/26 07:12:20;;;;;;;26.83;14.23;;;16.10;99.90;;;;;;5091263;28;20499;-77
2023/10/26 07:14:52;;;;;;;28.65;13.82;;;15.90;99.90;;;;;;5083193;28;20517;-76
2023/10/26 07:17:23;;;;;;;25.73;13.80;;;15.90;99.90;;;;;;5086876;28;20042;-75
2023/10/26 07:19:51;;;;;;;25.13;13.88;;;16.00;99.90;;;;;;5068859;28;20033;-76
2023/10/26 07:22:18;;;;;;;30.73;16.30;;;16.20;99.90;;;;;;5087308;28;20040;-77
2023/10/26 07:24:45;;;;;;;28.73;16.25;;;16.40;99.90;;;;;;5081144;28;20080;-75
2023/10/26 07:27:13;;;;;;;29.33;16.63;;;16.40;99.90;;;;;;5063113;28;20041;-78
2023/10/26 07:29:40;;;;;;;24.85;15.02;;;16.40;99.90;;;;;;5084662;28;20395;-76
2023/10/26 07:32:07;;;;;;;28.20;17.40;;;16.40;99.90;;;;;;5086458;28;20032;-76
2023/10/26 07:34:35;;;;;;;31.77;15.95;;;16.20;99.90;;;;;;5092356;28;20411;-77
2023/10/26 07:37:02;;;;;;;27.20;12.98;;;16.30;99.90;;;;;;5088497;28;20033;-76
2023/10/26 07:39:35;;;;;;;27.75;14.80;;;16.20;99.90;;;;;;5081723;28;20044;-78
2023/10/26 07:42:13;;;;;;;31.30;12.65;;;16.30;99.90;;;;;;5082635;28;20383;-77
2023/10/26 07:44:40;;;;;;;23.77;12.55;;;16.20;99.90;;;;;;5080294;28;20094;-76
2023/10/26 07:47:08;;;;;;;22.60;12.60;;;16.30;99.90;;;;;;5086833;28;20371;-76
2023/10/26 07:49:36;;;;;;;24.27;13.13;;;16.70;99.90;;;;;;5076760;28;20436;-77
2023/10/26 07:52:21;;;;;;;26.58;12.07;;;17.00;99.90;;;;;;5074109;28;20040;-74
2023/10/26 07:54:50;;;;;;;24.90;12.07;;;17.50;99.90;;;;;;5070262;28;20509;-76
2023/10/26 07:57:19;;;;;;;23.33;13.40;;;17.70;99.90;;;;;;5069002;28;20478;-75
2023/10/26 07:59:47;;;;;;;25.10;13.70;;;17.70;99.90;;;;;;5089768;28;20042;-76
2023/10/26 08:02:14;;;;;;;27.52;14.00;;;17.80;99.90;;;;;;5086146;28;20090;-76
2023/10/26 08:04:41;;;;;;;27.65;14.25;;;17.70;99.90;;;;;;5089451;28;20523;-75
2023/10/26 08:07:09;;;;;;;30.75;15.55;;;17.40;99.90;;;;;;5087377;28;20040;-76
2023/10/26 08:09:36;;;;;;;29.67;13.30;;;17.40;99.90;;;;;;5082915;28;20123;-76
2023/10/26 08:12:06;;;;;;;24.75;14.00;;;17.40;99.90;;;;;;5083605;28;20037;-76
2023/10/26 08:14:33;;;;;;;26.00;14.27;;;17.20;99.90;;;;;;5082391;28;20100;-79
2023/10/26 08:17:21;;;;;;;27.67;14.13;;;17.60;99.90;;;;;;5086844;28;20456;-75
2023/10/26 08:19:53;;;;;;;30.95;14.32;;;17.60;99.90;;;;;;5083066;28;20124;-74
2023/10/26 08:22:22;;;;;;;29.95;14.20;;;17.60;99.90;;;;;;5083648;28;20036;-75
2023/10/26 08:24:49;;;;;;;25.02;13.98;;;17.50;99.90;;;;;;5084935;28;20040;-75
2023/10/26 08:27:16;;;;;;;24.10;12.85;;;17.40;99.90;;;;;;5088208;28;20495;-76
2023/10/26 08:29:43;;;;;;;26.55;12.98;;;17.50;99.90;;;;;;5085219;28;20127;-74
2023/10/26 08:32:11;;;;;;;24.67;13.82;;;17.70;99.90;;;;;;5085838;28;20040;-77
2023/10/26 08:34:39;;;;;;;30.55;17.23;;;17.70;99.90;;;;;;5086923;28;20044;-77
2023/10/26 08:37:06;;;;;;;26.98;13.73;;;17.80;99.90;;;;;;5079064;28;20040;-78
2023/10/26 08:39:40;;;;;;;26.85;13.57;;;17.80;99.90;;;;;;5087306;28;20043;-74
2023/10/26 08:42:08;;;;;;;23.92;13.75;;;17.80;99.90;;;;;;5084914;28;20085;-76
2023/10/26 08:44:40;;;;;;;22.00;11.73;;;17.80;99.90;;;;;;5084206;28;20111;-76
2023/10/26 08:47:10;;;;;;;25.35;13.52;;;17.90;99.90;;;;;;5081775;28;20044;-75
2023/10/26 08:49:43;;;;;;;26.35;12.45;;;17.90;99.90;;;;;;5064116;28;20487;-81
2023/10/26 08:52:32;;;;;;;22.98;11.35;;;18.10;99.90;;;;;;5089389;28;20055;-83
2023/10/26 08:55:05;;;;;;;21.00;10.50;;;18.40;99.90;;;;;;5085224;28;20039;-81
2023/10/26 08:57:32;;;;;;;20.33;11.05;;;18.80;99.90;;;;;;5084908;28;20512;-77
2023/10/26 09:00:00;;;;;;;18.05;10.00;;;18.80;99.90;;;;;;5090002;28;20032;-79
2023/10/26 09:02:28;;;;;;;19.77;10.07;;;18.70;99.90;;;;;;5082203;28;20040;-82
2023/10/26 09:05:04;;;;;;;23.70;9.40;;;18.80;99.90;;;;;;5087646;28;20043;-81
2023/10/26 09:07:31;;;;;;;17.55;10.35;;;19.00;99.90;;;;;;5077268;28;21050;-79
2023/10/26 09:09:59;;;;;;;21.20;10.93;;;19.20;99.90;;;;;;5084196;28;20055;-82
2023/10/26 09:12:27;;;;;;;18.65;9.55;;;19.50;99.90;;;;;;5081153;28;20032;-77
2023/10/26 09:15:06;;;;;;;23.80;10.77;;;20.00;99.90;;;;;;5064951;28;20052;-76
2023/10/26 09:17:34;;;;;;;28.85;11.63;;;20.30;99.90;;;;;;5065518;28;20509;-75
2023/10/26 09:20:20;;;;;;;18.55;9.40;;;20.00;99.90;;;;;;5084113;28;20372;-77
2023/10/26 09:22:48;;;;;;;23.85;9.48;;;20.10;99.90;;;;;;5064090;28;20123;-77
2023/10/26 09:25:16;;;;;;;23.70;9.00;;;20.20;99.90;;;;;;5083690;28;20062;-77
2023/10/26 09:27:45;;;;;;;27.70;9.57;;;20.10;99.90;;;;;;5063797;28;20058;-80
2023/10/26 09:30:24;;;;;;;21.33;8.57;;;19.90;99.90;;;;;;5084134;28;20028;-77
2023/10/26 09:32:51;;;;;;;21.52;8.70;;;20.00;99.90;;;;;;5078162;28;20613;-77
2023/10/26 09:35:30;;;;;;;20.63;10.30;;;19.70;99.90;;;;;;5085049;28;20036;-76
2023/10/26 09:37:58;;;;;;;18.33;9.35;;;20.00;99.90;;;;;;5079429;28;20068;-79
2023/10/26 09:40:26;;;;;;;22.30;9.65;;;20.20;99.90;;;;;;5090365;28;20234;-78
2023/10/26 09:42:57;;;;;;;16.23;8.00;;;20.30;99.90;;;;;;5094909;28;20040;-80
2023/10/26 09:45:25;;;;;;;16.55;8.02;;;20.30;99.90;;;;;;5073411;28;20223;-77
2023/10/26 09:47:53;;;;;;;17.88;7.65;;;20.50;99.90;;;;;;5076580;28;20044;-77
2023/10/26 09:50:21;;;;;;;19.00;8.27;;;20.70;99.90;;;;;;5061623;28;20040;-79
2023/10/26 09:52:49;;;;;;;19.35;7.93;;;20.70;99.90;;;;;;5073354;28;20146;-80
2023/10/26 09:55:17;;;;;;;16.15;7.90;;;20.70;99.90;;;;;;5066288;28;20044;-79
2023/10/26 09:58:05;;;;;;;21.05;7.57;;;20.50;99.90;;;;;;5063196;28;20123;-77
2023/10/26 10:00:34;;;;;;;18.30;8.00;;;20.10;99.90;;;;;;5068534;28;20064;-76
2023/10/26 10:03:16;;;;;;;19.13;7.82;;;19.80;99.90;;;;;;5064671;28;20093;-77
2023/10/26 10:05:46;;;;;;;19.08;8.35;;;19.90;99.90;;;;;;5063702;28;20799;-77
2023/10/26 10:08:14;;;;;;;;;;;20.40;99.90;;;;;;5067907;28;20049;-78
2023/10/26 10:11:17;;;;;;;20.30;8.23;;;20.60;99.90;;;;;;5074688;28;20272;-77
2023/10/26 10:13:45;;;;;;;18.58;7.85;;;20.70;99.90;;;;;;4974740;28;20074;-78
2023/10/26 10:16:33;;;;;;;14.95;7.70;;;21.20;99.90;;;;;;5051637;28;20064;-80
2023/10/26 10:19:21;;;;;;;19.90;8.52;;;21.50;99.90;;;;;;5066996;28;20125;-74
2023/10/26 10:21:51;;;;;;;29.42;14.07;;;21.70;99.90;;;;;;5062768;28;20052;-75
2023/10/26 10:24:37;;;;;;;24.15;9.85;;;22.10;99.90;;;;;;5062119;28;20041;-74
2023/10/26 10:27:09;;;;;;;16.17;8.02;;;22.40;99.90;;;;;;5063964;28;20040;-77
2023/10/26 10:29:39;;;;;;;13.88;7.13;;;22.30;99.90;;;;;;5051725;28;20127;-75
2023/10/26 10:32:06;;;;;;;15.45;7.50;;;22.30;99.90;;;;;;5069758;28;20045;-77
2023/10/26 10:34:47;;;;;;;17.98;7.40;;;22.10;99.90;;;;;;5074573;28;20149;-75
2023/10/26 10:37:21;;;;;;;15.40;7.57;;;22.00;99.90;;;;;;5061445;28;20435;-76
2023/10/26 10:40:20;;;;;;;20.52;6.75;;;22.30;99.90;;;;;;5073001;28;20052;-76
2023/10/26 10:42:50;;;;;;;19.90;7.68;;;22.50;99.90;;;;;;5057954;28;20158;-81
2023/10/26 10:45:20;;;;;;;19.10;8.07;;;22.90;99.90;;;;;;5081782;28;20060;-77
2023/10/26 10:47:47;;;;;;;15.82;6.93;;;23.20;99.90;;;;;;5088678;28;20032;-77
2023/10/26 10:50:26;;;;;;;15.50;6.63;;;23.40;99.90;;;;;;5071130;28;20050;-79
2023/10/26 10:53:00;;;;;;;13.98;5.57;;;23.00;99.90;;;;;;5071789;28;20123;-80
2023/10/26 10:55:39;;;;;;;16.95;6.43;;;23.20;99.90;;;;;;5087271;28;20062;-80
2023/10/26 10:58:07;;;;;;;15.57;5.88;;;23.90;99.90;;;;;;5069531;28;20093;-78
2023/10/26 11:00:40;;;;;;;14.98;5.70;;;24.10;99.90;;;;;;5087227;28;20438;-78
2023/10/26 11:03:07;;;;;;;11.63;5.85;;;23.90;99.90;;;;;;5085433;28;20040;-79
2023/10/26 11:05:40;;;;;;;12.80;5.45;;;23.70;99.90;;;;;;5091304;28;20434;-80
2023/10/26 11:08:08;;;;;;;14.15;6.57;;;24.10;99.90;;;;;;5081532;28;20071;-78
2023/10/26 11:10:35;;;;;;;16.13;5.85;;;24.10;99.90;;;;;;5072707;28;20113;-77
2023/10/26 11:13:03;;;;;;;14.18;5.22;;;23.70;99.90;;;;;;5079570;28;20041;-80
2023/10/26 11:15:34;;;;;;;11.55;5.32;;;23.80;99.90;;;;;;5089331;28;20051;-78
2023/10/26 11:18:19;;;;;;;12.82;4.22;;;24.20;99.90;;;;;;5057285;28;20024;-80
2023/10/26 11:20:47;;;;;;;16.98;5.05;;;24.40;99.90;;;;;;5091121;28;20124;-77
2023/10/26 11:23:16;;;;;;;9.73;4.47;;;24.80;99.90;;;;;;5087017;28;20036;-79
2023/10/26 11:25:44;;;;;;;12.07;4.63;;;25.00;99.90;;;;;;5089916;28;20048;-77
2023/10/26 11:28:11;;;;;;;10.05;4.65;;;24.90;99.90;;;;;;5065335;28;20046;-79
2023/10/26 11:31:05;;;;;;;15.15;4.65;;;26.30;99.90;;;;;;5086005;28;20048;-77
2023/10/26 11:33:42;;;;;;;10.57;4.43;;;26.60;99.90;;;;;;5084097;28;20052;-77
2023/10/26 11:36:11;;;;;;;9.68;4.30;;;26.00;99.90;;;;;;5084613;28;20058;-77
2023/10/26 11:38:47;;;;;;;12.13;4.05;;;27.10;98.80;;;;;;5086788;28;20040;-79
2023/10/26 11:41:25;;;;;;;12.48;5.00;;;25.80;99.90;;;;;;5090411;28;20088;-77
2023/10/26 11:43:52;;;;;;;10.18;4.40;;;27.80;97.10;;;;;;5090135;28;20138;-79
2023/10/26 11:46:35;;;;;;;;;;;27.70;95.90;;;;;;5089924;28;20048;-80
2023/10/26 11:49:07;;;;;;;20.38;6.40;;;28.80;95.60;;;;;;5084944;28;19923;-76
2023/10/26 11:51:35;;;;;;;13.73;7.75;;;27.40;95.90;;;;;;5077094;28;20036;-81
2023/10/26 11:54:19;;;;;;;13.27;6.18;;;25.80;97.80;;;;;;5086131;28;20024;-75
2023/10/26 11:56:47;;;;;;;18.92;5.53;;;24.50;99.90;;;;;;5088004;28;20036;-79
2023/10/26 11:59:15;;;;;;;13.07;4.30;;;23.00;99.90;;;;;;5076524;28;20525;-78
2023/10/26 12:01:42;;;;;;;15.40;5.22;;;23.30;99.90;;;;;;5085331;28;20423;-77
2023/10/26 12:04:11;;;;;;;11.55;5.18;;;23.50;99.90;;;;;;5065368;28;20040;-78
2023/10/26 12:06:38;;;;;;;13.40;5.18;;;23.60;99.90;;;;;;5084924;28;20037;-78
2023/10/26 12:09:06;;;;;;;15.43;5.30;;;23.70;99.90;;;;;;5083275;28;20053;-80
2023/10/26 12:11:33;;;;;;;10.63;4.90;;;23.90;99.90;;;;;;5068166;28;20032;-77
2023/10/26 12:14:00;;;;;;;13.55;4.50;;;23.80;99.90;;;;;;5086431;28;20068;-78
2023/10/26 12:16:28;;;;;;;10.70;5.03;;;23.90;99.90;;;;;;5084757;28;20459;-78
2023/10/26 12:18:56;;;;;;;8.57;4.15;;;24.30;99.90;;;;;;5067646;28;20047;-78
2023/10/26 12:21:23;;;;;;;9.82;3.72;;;24.30;99.90;;;;;;5081698;28;20446;-79
2023/10/26 12:23:50;;;;;;;14.43;5.57;;;25.30;99.90;;;;;;5087034;28;20054;-78
2023/10/26 12:26:18;;;;;;;11.95;6.15;;;25.90;99.90;;;;;;5069568;28;20122;-82
2023/10/26 12:28:48;;;;;;;15.57;6.00;;;26.80;99.80;;;;;;5086539;28;20772;-78
2023/10/26 12:31:15;;;;;;;14.52;4.40;;;28.50;97.30;;;;;;5085318;28;20054;-78
2023/10/26 12:34:01;;;;;;;13.10;4.35;;;27.40;96.90;;;;;;5085589;28;20028;-77
2023/10/26 12:36:32;;;;;;;11.80;4.47;;;31.70;90.90;;;;;;5086668;28;20383;-78
2023/10/26 12:38:59;;;;;;;13.68;4.32;;;29.10;91.00;;;;;;5085607;28;20110;-78
2023/10/26 12:41:26;;;;;;;12.52;4.28;;;27.40;93.60;;;;;;5083040;28;20121;-81
2023/10/26 12:43:54;;;;;;;10.68;3.85;;;28.00;93.00;;;;;;5085082;28;20048;-79